createdAt,value
2023-01-13T00:00:30.621Z,101119.16
2023-01-13T00:02:33.546Z,101104.78
2023-01-13T00:04:36.454Z,101122.09
2023-01-13T00:06:39.253Z,101119.97
2023-01-13T00:08:42.117Z,101116.88
2023-01-13T00:10:48.510Z,101122.88
2023-01-13T00:12:51.665Z,101124.13
2023-01-13T00:14:54.392Z,101116.56
2023-01-13T00:16:57.116Z,101117.84
2023-01-13T00:18:59.814Z,101104.28
2023-01-13T00:21:07.225Z,101121.84
2023-01-13T00:23:09.930Z,101121.41
2023-01-13T00:25:12.934Z,101124.00
2023-01-13T00:27:15.663Z,101119.94
2023-01-13T00:29:18.485Z,101116.03
2023-01-13T00:31:21.810Z,101119.63
2023-01-13T00:33:25.553Z,101120.03
2023-01-13T00:35:28.241Z,101112.09
2023-01-13T00:37:31.048Z,101104.28
2023-01-13T00:39:33.778Z,101104.22
2023-01-13T00:41:55.117Z,101112.72
2023-01-13T00:43:57.978Z,101104.75
2023-01-13T00:46:01.092Z,101102.47
2023-01-13T00:48:03.944Z,101101.78
2023-01-13T00:50:06.829Z,101110.31
2023-01-13T00:52:09.576Z,101097.63
2023-01-13T00:54:12.336Z,101094.28
2023-01-13T00:56:16.863Z,101096.25
2023-01-13T00:58:20.856Z,101087.28
2023-01-13T01:00:23.669Z,101084.75
2023-01-13T01:02:26.459Z,101075.25
2023-01-13T01:04:29.230Z,101081.78
2023-01-13T01:06:32.062Z,101089.97
2023-01-13T01:08:36.024Z,101083.00
2023-01-13T01:10:38.749Z,101080.13
2023-01-13T01:12:41.425Z,101090.38
2023-01-13T01:14:44.231Z,101079.53
2023-01-13T01:16:47.023Z,101072.25
2023-01-13T01:18:51.505Z,101073.72
2023-01-13T01:20:54.262Z,101078.06
2023-01-13T01:22:56.911Z,101081.94
2023-01-13T01:24:59.962Z,101068.25
2023-01-13T01:27:02.664Z,101063.81
2023-01-13T01:29:05.331Z,101070.91
2023-01-13T01:31:13.386Z,101071.72
2023-01-13T01:33:17.065Z,101077.78
2023-01-13T01:35:19.712Z,101069.38
2023-01-13T01:37:22.457Z,101064.69
2023-01-13T01:39:25.350Z,101063.56
2023-01-13T01:41:30.632Z,101071.88
2023-01-13T01:44:00.151Z,101064.09
2023-01-13T01:46:03.641Z,101069.13
2023-01-13T01:48:07.429Z,101064.09
2023-01-13T01:50:10.972Z,101079.25
2023-01-13T01:52:36.291Z,101070.13
2023-01-13T01:54:47.076Z,101092.22
2023-01-13T01:56:50.745Z,101084.78
2023-01-13T01:58:54.469Z,101083.47
2023-01-13T02:00:57.265Z,101079.41
2023-01-13T02:03:01.690Z,101075.91
2023-01-13T02:05:04.889Z,101080.63
2023-01-13T02:07:08.446Z,101082.88
2023-01-13T02:09:11.921Z,101087.66
2023-01-13T02:11:50.283Z,101091.03
2023-01-13T02:13:53.388Z,101088.19
2023-01-13T02:16:17.565Z,101089.88
2023-01-13T02:18:38.835Z,101102.34
2023-01-13T02:20:50.548Z,101092.88
2023-01-13T02:23:34.372Z,101096.13
2023-01-13T02:26:00.952Z,101095.75
2023-01-13T02:28:27.639Z,101094.06
2023-01-13T02:31:04.721Z,101079.53
2023-01-13T02:33:36.281Z,101094.19
2023-01-13T02:36:11.437Z,101094.88
2023-01-13T02:38:16.859Z,101073.72
2023-01-13T02:40:56.963Z,101072.91
2023-01-13T02:43:37.117Z,101066.41
2023-01-13T02:45:48.171Z,101059.31
2023-01-13T02:47:55.974Z,101053.09
2023-01-13T02:50:13.429Z,101051.16
2023-01-13T02:52:36.915Z,101057.38
2023-01-13T02:54:44.823Z,101062.09
2023-01-13T02:56:53.549Z,101063.75
2023-01-13T02:58:58.174Z,101075.50
2023-01-13T03:01:01.104Z,101060.47
2023-01-13T03:03:04.376Z,101054.97
2023-01-13T03:05:07.626Z,101054.09
2023-01-13T03:07:38.311Z,101045.47
2023-01-13T03:09:50.842Z,101067.91
2023-01-13T03:12:03.943Z,101060.56
2023-01-13T03:14:30.579Z,101071.13
2023-01-13T03:17:10.649Z,101052.78
2023-01-13T03:19:39.731Z,101067.09
2023-01-13T03:22:11.729Z,101051.59
2023-01-13T03:24:23.005Z,101047.59
2023-01-13T03:26:52.182Z,101042.38
2023-01-13T03:29:09.384Z,101041.78
2023-01-13T03:31:22.493Z,101056.47
2023-01-13T03:33:34.685Z,101051.75
2023-01-13T03:35:42.757Z,101036.28
2023-01-13T03:37:52.743Z,101027.78
2023-01-13T03:40:02.893Z,101024.06
2023-01-13T03:42:15.722Z,101026.00
2023-01-13T03:44:25.494Z,101038.00
2023-01-13T03:46:43.585Z,101033.47
2023-01-13T03:48:47.010Z,101042.50
2023-01-13T03:50:52.596Z,101040.09
2023-01-13T03:53:02.981Z,101038.16
2023-01-13T03:55:13.517Z,101040.78
2023-01-13T03:57:19.559Z,101035.75
2023-01-13T03:59:28.402Z,101051.97
2023-01-13T04:01:54.871Z,101054.72
2023-01-13T04:04:05.249Z,101049.06
2023-01-13T04:06:45.821Z,101057.34
2023-01-13T04:09:03.454Z,101058.91
2023-01-13T04:11:12.255Z,101069.84
2023-01-13T04:13:22.386Z,101064.78
2023-01-13T04:15:28.409Z,101063.00
2023-01-13T04:17:32.228Z,101068.34
2023-01-13T04:19:34.952Z,101076.28
2023-01-13T04:21:37.787Z,101084.28
2023-01-13T04:23:40.547Z,101076.72
2023-01-13T04:25:44.133Z,101085.09
2023-01-13T04:27:46.788Z,101084.03
2023-01-13T04:29:49.522Z,101082.22
2023-01-13T04:31:52.249Z,101086.41
2023-01-13T04:33:55.033Z,101075.59
2023-01-13T04:35:57.687Z,101084.94
2023-01-13T04:38:06.113Z,101090.94
2023-01-13T04:40:09.687Z,101087.47
2023-01-13T04:42:13.860Z,101075.72
2023-01-13T04:44:16.575Z,101092.03
2023-01-13T04:46:19.389Z,101096.88
2023-01-13T04:48:22.179Z,101098.91
2023-01-13T04:50:25.367Z,101102.28
2023-01-13T04:52:28.129Z,101099.50
2023-01-13T04:54:30.794Z,101100.91
2023-01-13T04:56:33.540Z,101102.28
2023-01-13T04:58:36.257Z,101108.03
2023-01-13T05:00:39.165Z,101106.72
2023-01-13T05:02:42.061Z,101107.09
2023-01-13T05:04:44.775Z,101088.53
2023-01-13T05:06:47.535Z,101088.59
2023-01-13T05:08:51.305Z,101081.97
2023-01-13T05:10:53.996Z,101096.38
2023-01-13T05:13:15.848Z,101093.38
2023-01-13T05:15:37.570Z,101100.34
2023-01-13T05:17:40.906Z,101094.47
2023-01-13T05:19:43.569Z,101091.44
2023-01-13T05:22:04.856Z,101098.16
2023-01-13T05:24:28.266Z,101111.84
2023-01-13T05:26:31.072Z,101116.41
2023-01-13T05:28:35.255Z,101118.47
2023-01-13T05:30:43.986Z,101128.78
2023-01-13T05:32:46.793Z,101127.81
2023-01-13T05:34:49.977Z,101126.34
2023-01-13T05:36:52.653Z,101130.78
2023-01-13T05:38:55.258Z,101111.34
2023-01-13T05:41:18.802Z,101118.94
2023-01-13T05:43:23.068Z,101104.53
2023-01-13T05:45:26.094Z,101114.59
2023-01-13T05:47:28.784Z,101117.72
2023-01-13T05:49:31.421Z,101095.63
2023-01-13T05:51:34.121Z,101121.47
2023-01-13T05:53:37.046Z,101100.53
2023-01-13T05:55:41.248Z,101103.44
2023-01-13T05:57:43.985Z,101107.19
2023-01-13T05:59:46.684Z,101104.16
2023-01-13T06:01:49.422Z,101111.94
2023-01-13T06:03:52.123Z,101106.47
2023-01-13T06:05:59.052Z,101101.53
2023-01-13T06:08:04.232Z,101109.56
2023-01-13T06:10:07.801Z,101100.16
2023-01-13T06:12:14.292Z,101112.16
2023-01-13T06:14:16.945Z,101112.50
2023-01-13T06:16:19.736Z,101113.91
2023-01-13T06:18:22.395Z,101119.78
2023-01-13T06:20:25.778Z,101123.72
2023-01-13T06:22:32.990Z,101122.44
2023-01-13T06:24:36.628Z,101142.75
2023-01-13T06:26:41.706Z,101122.38
2023-01-13T06:28:44.423Z,101139.06
2023-01-13T06:30:53.257Z,101135.84
2023-01-13T06:32:59.169Z,101144.56
2023-01-13T06:35:06.979Z,101121.69
2023-01-13T06:37:13.269Z,101137.25
2023-01-13T06:39:20.506Z,101126.25
2023-01-13T06:41:43.793Z,101125.19
2023-01-13T06:43:46.938Z,101125.47
2023-01-13T06:45:54.917Z,101119.75
2023-01-13T06:48:00.205Z,101120.00
2023-01-13T06:50:02.896Z,101114.47
2023-01-13T06:52:06.717Z,101103.16
2023-01-13T06:54:09.484Z,101115.59
2023-01-13T06:56:12.100Z,101116.31
2023-01-13T06:58:14.743Z,101118.19
2023-01-13T07:00:17.913Z,101112.22
2023-01-13T07:02:20.853Z,101117.47
2023-01-13T07:04:23.685Z,101103.91
2023-01-13T07:06:26.352Z,101098.50
2023-01-13T07:08:29.127Z,101098.03
2023-01-13T07:10:33.111Z,101096.63
2023-01-13T07:12:59.436Z,101097.06
2023-01-13T07:15:20.263Z,101096.63
2023-01-13T07:17:25.513Z,101082.53
2023-01-13T07:19:28.269Z,101085.88
2023-01-13T07:21:30.992Z,101101.63
2023-01-13T07:23:38.499Z,101099.03
2023-01-13T07:25:41.176Z,101088.88
2023-01-13T07:27:44.000Z,101094.50
2023-01-13T07:29:46.741Z,101089.66
2023-01-13T07:31:50.357Z,101094.13
2023-01-13T07:33:53.185Z,101086.09
2023-01-13T07:35:58.094Z,101080.22
2023-01-13T07:38:00.803Z,101076.69
2023-01-13T07:40:07.003Z,101081.06
2023-01-13T07:42:28.612Z,101096.09
2023-01-13T07:44:31.340Z,101076.19
2023-01-13T07:46:34.276Z,101095.38
2023-01-13T07:48:36.950Z,101080.50
2023-01-13T07:50:40.176Z,101079.28
2023-01-13T07:52:43.473Z,101076.63
2023-01-13T07:54:46.260Z,101093.38
2023-01-13T07:56:48.927Z,101095.91
2023-01-13T07:58:53.129Z,101087.25
2023-01-13T08:00:56.814Z,101109.13
2023-01-13T08:03:00.844Z,101096.81
2023-01-13T08:05:05.392Z,101104.00
2023-01-13T08:07:08.252Z,101105.72
2023-01-13T08:09:11.010Z,101103.13
2023-01-13T08:11:14.027Z,101108.28
2023-01-13T08:13:18.456Z,101106.91
2023-01-13T08:15:21.218Z,101088.63
2023-01-13T08:17:24.579Z,101101.63
2023-01-13T08:19:27.231Z,101097.31
2023-01-13T08:21:29.881Z,101103.75
2023-01-13T08:23:32.675Z,101100.94
2023-01-13T08:25:35.766Z,101097.31
2023-01-13T08:27:38.742Z,101104.41
2023-01-13T08:29:41.653Z,101110.97
2023-01-13T08:31:44.773Z,101111.59
2023-01-13T08:33:47.702Z,101106.41
2023-01-13T08:35:52.870Z,101093.25
2023-01-13T08:37:55.571Z,101091.91
2023-01-13T08:39:58.281Z,101094.25
2023-01-13T08:42:00.913Z,101081.97
2023-01-13T08:44:04.017Z,101077.50
2023-01-13T08:46:07.147Z,101069.16
2023-01-13T08:48:09.915Z,101074.56
2023-01-13T08:50:12.808Z,101060.50
2023-01-13T08:52:16.513Z,101067.31
2023-01-13T08:54:19.478Z,101063.28
2023-01-13T08:56:22.161Z,101076.69
2023-01-13T08:58:25.492Z,101079.88
2023-01-13T09:00:28.215Z,101072.75
2023-01-13T09:02:31.083Z,101072.19
2023-01-13T09:04:33.848Z,101069.81
2023-01-13T09:06:36.719Z,101059.63
2023-01-13T09:08:39.494Z,101057.66
2023-01-13T09:10:42.440Z,101072.44
2023-01-13T09:13:03.712Z,101059.91
2023-01-13T09:15:06.881Z,101055.13
2023-01-13T09:17:09.634Z,101070.78
2023-01-13T09:19:12.511Z,101061.44
2023-01-13T09:21:15.787Z,101056.13
2023-01-13T09:23:18.457Z,101054.91
2023-01-13T09:25:21.212Z,101054.31
2023-01-13T09:27:24.270Z,101044.31
2023-01-13T09:29:27.021Z,101048.19
2023-01-13T09:31:29.856Z,101039.53
2023-01-13T09:33:58.739Z,101050.69
2023-01-13T09:36:01.495Z,101059.34
2023-01-13T09:38:04.399Z,101047.63
2023-01-13T09:40:17.542Z,101038.00
2023-01-13T09:43:04.873Z,101042.09
2023-01-13T09:45:15.137Z,101038.72
2023-01-13T09:47:31.234Z,101039.84
2023-01-13T09:49:40.315Z,101050.31
2023-01-13T09:51:49.528Z,101047.09
2023-01-13T09:53:57.633Z,101035.97
2023-01-13T09:56:01.066Z,101044.31
2023-01-13T09:58:18.759Z,101039.13
2023-01-13T10:00:24.504Z,101045.69
2023-01-13T10:02:31.364Z,101047.94
2023-01-13T10:04:34.235Z,101034.53
2023-01-13T10:06:43.112Z,101027.00
2023-01-13T10:08:48.429Z,101028.13
2023-01-13T10:10:55.500Z,101016.66
2023-01-13T10:13:17.243Z,101016.66
2023-01-13T10:15:26.475Z,101019.16
2023-01-13T10:17:39.631Z,101030.03
2023-01-13T10:19:49.029Z,101017.47
2023-01-13T10:22:09.248Z,101027.78
2023-01-13T10:24:26.969Z,101028.06
2023-01-13T10:27:03.418Z,101029.91
2023-01-13T10:29:19.752Z,101026.66
2023-01-13T10:31:24.225Z,101049.56
2023-01-13T10:33:28.681Z,101039.75
2023-01-13T10:35:52.187Z,101044.78
2023-01-13T10:37:57.689Z,101041.75
2023-01-13T10:40:03.034Z,101048.16
2023-01-13T10:42:13.988Z,101048.16
2023-01-13T10:44:18.972Z,101045.38
2023-01-13T10:46:21.956Z,101046.38
2023-01-13T10:48:34.065Z,101040.94
2023-01-13T10:50:37.842Z,101036.47
2023-01-13T10:52:55.866Z,101036.03
2023-01-13T10:54:58.979Z,101041.47
2023-01-13T10:57:21.480Z,101036.34
2023-01-13T10:59:29.251Z,101033.69
2023-01-13T11:01:32.318Z,101028.66
2023-01-13T11:03:43.384Z,101023.38
2023-01-13T11:05:58.671Z,101030.91
2023-01-13T11:08:01.580Z,101029.63
2023-01-13T11:10:27.689Z,101036.22
2023-01-13T11:12:35.269Z,101048.75
2023-01-13T11:14:47.330Z,101043.75
2023-01-13T11:16:53.973Z,101045.84
2023-01-13T11:19:14.421Z,101046.13
2023-01-13T11:21:29.600Z,101031.19
2023-01-13T11:23:42.815Z,101037.63
2023-01-13T11:25:50.483Z,101036.09
2023-01-13T11:28:19.990Z,101032.59
2023-01-13T11:31:01.192Z,101034.97
2023-01-13T11:33:15.738Z,101028.94
2023-01-13T11:35:21.182Z,101030.88
2023-01-13T11:37:38.756Z,101030.56
2023-01-13T11:40:12.438Z,101027.78
2023-01-13T11:42:31.746Z,101025.38
2023-01-13T11:44:58.755Z,101019.03
2023-01-13T11:47:02.518Z,101004.53
2023-01-13T11:49:06.458Z,101012.59
2023-01-13T11:51:15.558Z,101017.47
2023-01-13T11:53:21.722Z,101009.22
2023-01-13T11:55:40.651Z,101012.81
2023-01-13T11:58:12.311Z,101017.34
2023-01-13T12:00:33.747Z,100990.88
2023-01-13T12:03:11.330Z,100997.44
2023-01-13T12:05:38.606Z,100982.97
2023-01-13T12:07:52.220Z,100990.28
2023-01-13T12:10:10.364Z,100991.53
2023-01-13T12:12:53.030Z,100987.09
2023-01-13T12:15:24.264Z,100992.81
2023-01-13T12:17:44.587Z,100991.28
2023-01-13T12:19:52.211Z,100991.41
2023-01-13T12:22:07.311Z,100990.63
2023-01-13T12:24:39.249Z,100995.19
2023-01-13T12:26:54.731Z,100979.50
2023-01-13T12:29:06.944Z,100984.91
2023-01-13T12:31:11.418Z,100970.59
2023-01-13T12:33:23.860Z,100973.22
2023-01-13T12:35:42.295Z,100959.94
2023-01-13T12:37:57.509Z,100971.34
2023-01-13T12:40:18.763Z,100958.53
2023-01-13T12:42:45.871Z,100962.72
2023-01-13T12:45:09.878Z,100963.41
2023-01-13T12:47:43.813Z,100963.03
2023-01-13T12:49:47.624Z,100966.91
2023-01-13T12:51:53.098Z,100975.59
2023-01-13T12:53:56.713Z,100965.00
2023-01-13T12:56:22.362Z,100973.94
2023-01-13T12:58:28.841Z,100969.16
2023-01-13T13:00:32.723Z,100972.78
2023-01-13T13:02:41.261Z,100968.63
2023-01-13T13:04:50.112Z,100971.56
2023-01-13T13:07:09.672Z,100977.22
2023-01-13T13:09:27.645Z,100962.44
2023-01-13T13:11:59.422Z,100963.69
2023-01-13T13:14:06.104Z,100953.94
2023-01-13T13:16:30.614Z,100958.72
2023-01-13T13:18:33.692Z,100950.59
2023-01-13T13:20:54.708Z,100958.53
2023-01-13T13:22:57.388Z,100973.81
2023-01-13T13:25:00.029Z,100971.03
2023-01-13T13:27:37.761Z,100982.56
2023-01-13T13:29:44.874Z,100957.38
2023-01-13T13:32:11.331Z,100967.22
2023-01-13T13:34:45.428Z,100967.88
2023-01-13T13:36:49.841Z,100960.66
2023-01-13T13:39:23.530Z,100958.66
2023-01-13T13:41:45.672Z,100963.47
2023-01-13T13:44:07.122Z,100965.66
2023-01-13T13:46:49.008Z,100959.16
2023-01-13T13:48:54.661Z,100955.09
2023-01-13T13:51:02.891Z,100964.47
2023-01-13T13:53:08.591Z,100963.84
2023-01-13T13:55:20.478Z,100954.75
2023-01-13T13:57:40.082Z,100964.44
2023-01-13T13:59:42.857Z,100962.88
2023-01-13T14:01:50.309Z,100973.44
2023-01-13T14:04:33.742Z,100962.56
2023-01-13T14:06:36.894Z,100968.94
2023-01-13T14:08:46.712Z,100966.84
2023-01-13T14:10:49.654Z,100971.94
2023-01-13T14:12:53.020Z,100955.97
2023-01-13T14:14:57.633Z,100960.56
2023-01-13T14:17:00.604Z,100934.56
2023-01-13T14:19:03.292Z,100971.47
2023-01-13T14:21:24.423Z,100973.97
2023-01-13T14:23:30.658Z,100973.28
2023-01-13T14:25:40.212Z,100962.34
2023-01-13T14:27:43.642Z,100971.69
2023-01-13T14:29:46.661Z,100978.66
2023-01-13T14:31:52.417Z,100965.69
2023-01-13T14:33:57.802Z,100962.34
2023-01-13T14:36:15.109Z,100958.84
2023-01-13T14:38:17.835Z,100952.63
2023-01-13T14:40:42.605Z,100950.38
2023-01-13T14:42:46.934Z,100939.81
2023-01-13T14:44:51.501Z,100944.72
2023-01-13T14:46:56.779Z,100944.94
2023-01-13T14:49:02.533Z,100942.19
2023-01-13T14:51:25.920Z,100938.25
2023-01-13T14:53:47.417Z,100948.94
2023-01-13T14:55:50.432Z,100938.63
2023-01-13T14:57:53.315Z,100943.19
2023-01-13T15:00:05.042Z,100946.09
2023-01-13T15:02:45.414Z,100938.03
2023-01-13T15:04:48.106Z,100936.63
2023-01-13T15:06:55.260Z,100931.56
2023-01-13T15:08:57.927Z,100931.56
2023-01-13T15:11:08.602Z,100936.63
2023-01-13T15:13:29.219Z,100923.22
2023-01-13T15:15:34.882Z,100940.47
2023-01-13T15:17:38.782Z,100922.81
2023-01-13T15:19:41.536Z,100926.13
2023-01-13T15:21:46.937Z,100918.22
2023-01-13T15:23:50.136Z,100916.00
2023-01-13T15:25:53.048Z,100919.88
2023-01-13T15:28:00.213Z,100928.78
2023-01-13T15:30:25.703Z,100924.22
2023-01-13T15:32:29.645Z,100905.25
2023-01-13T15:34:32.386Z,100916.94
2023-01-13T15:36:38.484Z,100915.56
2023-01-13T15:38:42.807Z,100906.34
2023-01-13T15:40:46.459Z,100907.78
2023-01-13T15:43:07.438Z,100900.31
2023-01-13T15:45:32.248Z,100901.34
2023-01-13T15:47:35.352Z,100881.97
2023-01-13T15:49:44.531Z,100889.38
2023-01-13T15:51:49.103Z,100890.41
2023-01-13T15:53:52.185Z,100909.34
2023-01-13T15:55:58.252Z,100895.78
2023-01-13T15:58:02.231Z,100890.94
2023-01-13T16:00:13.385Z,100886.09
2023-01-13T16:02:18.445Z,100901.88
2023-01-13T16:04:21.078Z,100893.25
2023-01-13T16:06:29.997Z,100898.09
2023-01-13T16:08:34.414Z,100890.22
2023-01-13T16:10:37.047Z,100893.44
2023-01-13T16:12:39.700Z,100883.44
2023-01-13T16:14:42.399Z,100884.03
2023-01-13T16:16:45.095Z,100881.00
2023-01-13T16:18:48.271Z,100876.28
2023-01-13T16:20:55.399Z,100876.41
2023-01-13T16:22:58.036Z,100878.34
2023-01-13T16:25:00.672Z,100876.66
2023-01-13T16:27:16.102Z,100881.13
2023-01-13T16:29:18.879Z,100859.84
2023-01-13T16:31:29.280Z,100877.97
2023-01-13T16:33:31.987Z,100868.63
2023-01-13T16:35:35.491Z,100870.97
2023-01-13T16:37:49.781Z,100880.59
2023-01-13T16:39:53.424Z,100857.78
2023-01-13T16:41:56.769Z,100859.03
2023-01-13T16:44:06.195Z,100867.94
2023-01-13T16:46:38.245Z,100859.91
2023-01-13T16:48:40.868Z,100857.97
2023-01-13T16:50:43.499Z,100862.84
2023-01-13T16:52:46.233Z,100875.91
2023-01-13T16:54:48.901Z,100877.16
2023-01-13T16:56:51.563Z,100881.59
2023-01-13T16:58:56.961Z,100886.44
2023-01-13T17:00:59.750Z,100868.97
2023-01-13T17:03:03.013Z,100869.38
2023-01-13T17:05:06.585Z,100868.84
2023-01-13T17:07:11.040Z,100865.38
2023-01-13T17:09:22.717Z,100860.66
2023-01-13T17:11:25.420Z,100846.31
2023-01-13T17:13:28.049Z,100862.91
2023-01-13T17:15:30.726Z,100855.97
2023-01-13T17:17:34.018Z,100864.72
2023-01-13T17:19:36.605Z,100861.97
2023-01-13T17:21:39.239Z,100872.66
2023-01-13T17:23:42.307Z,100870.44
2023-01-13T17:25:44.887Z,100875.34
2023-01-13T17:27:47.754Z,100883.69
2023-01-13T17:29:50.830Z,100870.44
2023-01-13T17:31:53.715Z,100883.28
2023-01-13T17:33:56.481Z,100875.91
2023-01-13T17:35:59.107Z,100880.34
2023-01-13T17:38:02.293Z,100879.91
2023-01-13T17:40:05.542Z,100883.28
2023-01-13T17:42:08.106Z,100890.94
2023-01-13T17:44:45.088Z,100884.38
2023-01-13T17:46:57.632Z,100881.72
2023-01-13T17:49:00.295Z,100872.97
2023-01-13T17:51:03.775Z,100882.13
2023-01-13T17:53:06.490Z,100889.94
2023-01-13T17:55:09.423Z,100877.81
2023-01-13T17:57:11.978Z,100885.22
2023-01-13T17:59:17.395Z,100884.38
2023-01-13T18:01:22.287Z,100875.63
2023-01-13T18:03:24.977Z,100871.28
2023-01-13T18:05:28.144Z,100874.31
2023-01-13T18:07:30.861Z,100872.00
2023-01-13T18:09:33.668Z,100870.72
2023-01-13T18:11:36.634Z,100877.66
2023-01-13T18:13:43.515Z,100870.72
2023-01-13T18:15:46.305Z,100865.84
2023-01-13T18:17:48.937Z,100861.00
2023-01-13T18:20:10.336Z,100874.09
2023-01-13T18:22:46.202Z,100859.34
2023-01-13T18:25:07.321Z,100850.13
2023-01-13T18:27:24.722Z,100851.13
2023-01-13T18:29:27.554Z,100845.13
2023-01-13T18:31:30.387Z,100875.75
2023-01-13T18:33:32.980Z,100879.09
2023-01-13T18:35:40.175Z,100865.47
2023-01-13T18:37:43.177Z,100877.16
2023-01-13T18:39:45.925Z,100874.81
2023-01-13T18:42:07.182Z,100875.78
2023-01-13T18:44:09.856Z,100863.97
2023-01-13T18:46:12.595Z,100865.50
2023-01-13T18:48:16.328Z,100875.94
2023-01-13T18:50:19.210Z,100876.63
2023-01-13T18:52:24.178Z,100879.44
2023-01-13T18:54:27.023Z,100877.31
2023-01-13T18:56:31.361Z,100873.16
2023-01-13T18:58:34.030Z,100863.72
2023-01-13T19:00:37.918Z,100871.22
2023-01-13T19:02:41.132Z,100868.56
2023-01-13T19:04:44.221Z,100860.38
2023-01-13T19:06:50.554Z,100866.06
2023-01-13T19:08:56.371Z,100865.50
2023-01-13T19:11:07.129Z,100858.38
2023-01-13T19:13:09.745Z,100874.16
2023-01-13T19:15:12.618Z,100871.91
2023-01-13T19:17:16.330Z,100860.78
2023-01-13T19:19:18.999Z,100876.69
2023-01-13T19:21:21.803Z,100870.69
2023-01-13T19:23:24.555Z,100865.09
2023-01-13T19:25:27.439Z,100865.81
2023-01-13T19:27:30.682Z,100863.97
2023-01-13T19:29:33.992Z,100874.84
2023-01-13T19:31:37.133Z,100871.50
2023-01-13T19:33:40.839Z,100866.09
2023-01-13T19:35:43.823Z,100875.28
2023-01-13T19:37:47.015Z,100869.97
2023-01-13T19:39:49.741Z,100872.63
2023-01-13T19:42:28.381Z,100883.63
2023-01-13T19:44:49.650Z,100878.78
2023-01-13T19:46:52.217Z,100870.84
2023-01-13T19:48:54.850Z,100876.25
2023-01-13T19:50:59.405Z,100884.09
2023-01-13T19:53:02.051Z,100882.38
2023-01-13T19:55:05.088Z,100876.81
2023-01-13T19:57:08.030Z,100876.81
2023-01-13T19:59:13.595Z,100872.50
2023-01-13T20:01:16.435Z,100865.38
2023-01-13T20:03:23.897Z,100873.63
2023-01-13T20:05:27.535Z,100865.09
2023-01-13T20:07:31.571Z,100859.09
2023-01-13T20:09:36.314Z,100851.56
2023-01-13T20:11:39.230Z,100861.91
2023-01-13T20:13:41.782Z,100855.78
2023-01-13T20:15:44.599Z,100856.88
2023-01-13T20:17:47.754Z,100857.97
2023-01-13T20:19:50.373Z,100858.56
2023-01-13T20:21:53.050Z,100850.91
2023-01-13T20:23:56.933Z,100850.91
2023-01-13T20:26:00.356Z,100838.50
2023-01-13T20:28:03.124Z,100827.75
2023-01-13T20:30:09.694Z,100841.56
2023-01-13T20:32:12.623Z,100848.50
2023-01-13T20:34:16.135Z,100861.47
2023-01-13T20:36:39.607Z,100851.97
2023-01-13T20:38:42.244Z,100847.69
2023-01-13T20:40:44.910Z,100847.13
2023-01-13T20:42:47.653Z,100843.78
2023-01-13T20:44:50.410Z,100855.06
2023-01-13T20:46:54.775Z,100848.66
2023-01-13T20:48:57.524Z,100853.97
2023-01-13T20:51:00.819Z,100854.09
2023-01-13T20:53:03.490Z,100852.25
2023-01-13T20:55:07.808Z,100850.72
2023-01-13T20:57:11.243Z,100841.56
2023-01-13T20:59:14.200Z,100854.91
2023-01-13T21:01:16.888Z,100860.19
2023-01-13T21:03:19.683Z,100861.91
2023-01-13T21:05:22.409Z,100870.25
2023-01-13T21:07:25.203Z,100864.53
2023-01-13T21:09:28.027Z,100866.19
2023-01-13T21:11:49.352Z,100868.56
2023-01-13T21:14:10.676Z,100858.97
2023-01-13T21:16:13.418Z,100848.91
2023-01-13T21:18:34.854Z,100866.06
2023-01-13T21:20:39.417Z,100867.72
2023-01-13T21:22:46.998Z,100852.25
2023-01-13T21:24:49.763Z,100849.63
2023-01-13T21:27:01.299Z,100863.03
2023-01-13T21:29:04.526Z,100852.69
2023-01-13T21:31:09.413Z,100854.91
2023-01-13T21:33:15.306Z,100854.63
2023-01-13T21:35:17.913Z,100858.25
2023-01-13T21:37:20.853Z,100855.06
2023-01-13T21:39:23.466Z,100858.78
2023-01-13T21:41:45.372Z,100870.38
2023-01-13T21:44:06.813Z,100858.25
2023-01-13T21:46:37.067Z,100868.28
2023-01-13T21:48:39.811Z,100873.72
2023-01-13T21:50:42.440Z,100860.06
2023-01-13T21:52:45.981Z,100860.38
2023-01-13T21:55:07.129Z,100865.50
2023-01-13T21:57:09.735Z,100861.06
2023-01-13T21:59:12.389Z,100858.28
2023-01-13T22:01:25.347Z,100860.09
2023-01-13T22:03:28.005Z,100866.63
2023-01-13T22:05:30.779Z,100865.25
2023-01-13T22:07:35.091Z,100855.06
2023-01-13T22:09:37.799Z,100858.16
2023-01-13T22:11:40.529Z,100863.31
2023-01-13T22:14:01.640Z,100867.75
2023-01-13T22:16:04.962Z,100868.44
2023-01-13T22:18:07.628Z,100865.81
2023-01-13T22:20:12.294Z,100866.63
2023-01-13T22:22:18.749Z,100860.50
2023-01-13T22:24:21.539Z,100867.06
2023-01-13T22:26:24.117Z,100870.28
2023-01-13T22:28:34.191Z,100862.31
2023-01-13T22:30:36.931Z,100868.31
2023-01-13T22:32:40.250Z,100867.75
2023-01-13T22:34:43.414Z,100868.44
2023-01-13T22:36:46.035Z,100865.56
2023-01-13T22:38:48.713Z,100866.78
2023-01-13T22:40:58.848Z,100872.78
2023-01-13T22:43:01.543Z,100871.09
2023-01-13T22:45:05.655Z,100877.94
2023-01-13T22:47:09.915Z,100877.66
2023-01-13T22:49:12.874Z,100881.28
2023-01-13T22:51:18.818Z,100868.63
2023-01-13T22:53:22.249Z,100862.63
2023-01-13T22:55:24.969Z,100875.72
2023-01-13T22:57:36.107Z,100878.50
2023-01-13T22:59:41.402Z,100874.03
2023-01-13T23:01:44.150Z,100871.25
2023-01-13T23:03:50.019Z,100867.06
2023-01-13T23:05:56.761Z,100874.31
2023-01-13T23:07:59.335Z,100870.84
2023-01-13T23:10:02.644Z,100878.91
2023-01-13T23:12:06.197Z,100863.59
2023-01-13T23:14:11.643Z,100858.56
2023-01-13T23:16:17.148Z,100869.72
2023-01-13T23:18:19.819Z,100866.34
2023-01-13T23:20:22.836Z,100872.22
2023-01-13T23:22:25.587Z,100862.16
2023-01-13T23:24:29.439Z,100869.28
2023-01-13T23:26:33.217Z,100867.91
2023-01-13T23:28:37.860Z,100871.69
2023-01-13T23:30:40.634Z,100869.84
2023-01-13T23:32:43.245Z,100875.00
2023-01-13T23:34:46.046Z,100881.56
2023-01-13T23:36:48.761Z,100869.16
2023-01-13T23:38:52.119Z,100868.75
2023-01-13T23:40:54.961Z,100870.56
2023-01-13T23:42:57.550Z,100866.09
2023-01-13T23:45:00.165Z,100878.63
2023-01-13T23:47:02.822Z,100867.47
2023-01-13T23:49:05.474Z,100864.53
2023-01-13T23:51:11.353Z,100871.25
2023-01-13T23:53:13.985Z,100875.84
2023-01-13T23:55:16.667Z,100873.44
2023-01-13T23:57:19.324Z,100877.50
2023-01-13T23:59:22.146Z,100863.28
